Rake, Iowa
Current Conditions -  °F | °C
As of 12:15 PM on Thursday 30 Oct 2014 (Local Time) from KFXY Reporting Station
Overcast Overcast  
Wind Chill: 50°   Ceiling: 8000
Heat Index: 50°   Visibility: 10mi
Dew Point: 37°   Wind: 0mph
Humidity: 62%   Direction: NA
Pressure: 30.05"   Gusts: NA
Location:  43.48°N, 93.92°W
Report Text: KFXY 301715Z AUTO 00000KT 10SM OVC080 10/03 A3005 RMK AO2
Loading
Personal Weather Stations






























Interactive Weather Map
Tropical Storm Tracking
New forecast layout! Learn more

10-Day Weather Forecast

Advertisements
Track Severe Weather on mobile